Thunder radar more information blitzortung!


Radar de pluja more information rain snow radar


Visita la nostra xarxa de llocs de meteo:

Template documentation
and downloads

And another site



Extreme low temperature From: 13-12-2017 09:00 Until: 09:59 warning for: Extreme low temperature Level: Yellow info button

Pagina Historial Weather Underground text

Diari Resum May 26, 2016 Unitats:  Mètric    Imperial   Tant
« Previous Dia
SegĂźent Dia »
Diari Setmana Mensual Anual Personalitzada
  Maxima: Minima: Media:
Temperatura: 25.4 °C 13.7 °C 20 °C
Punt de rosada: 14.2 °C 9.3 °C 11.2 °C
Humitat: 82 % 39 % 58 %
Wind Speed: 25.9 km/h 0.0 km/h 7.6 km/h
RĂ fegues de vent: 25.9 km/h - -
Vent:- - East
Pression baro: 1015.8 hPa 1011.7 hPa -
Precipitacions: 0.0 mm    
Historical Graphs
 
 
Dades de taula per May 26, 2016
Temps Temperatura Punt de rosada Pression baro Vent Wind Speed RĂ fegues de vent Humitat Rainfall Rate (Hourly)
00:04 17.7 °C 11.9 °C 1013.8 hPa ESE 5.0 km/h 5.0 km/h 69 % 0.0 mm
00:05 16.4 °C 12.9 °C 1013.8 hPa NE 3.2 km/h 4.8 km/h 80 % 0.0 mm
00:09 17.6 °C 11.8 °C 1013.8 hPa ESE 5.3 km/h 5.3 km/h 69 % 0.0 mm
00:25 16.2 °C 12.9 °C 1012.8 hPa NE 3.2 km/h 4.8 km/h 81 % 0.0 mm
00:35 16.1 °C 12.8 °C 1013.8 hPa NE 3.2 km/h 4.8 km/h 81 % 0.0 mm
00:45 16.0 °C 12.7 °C 1013.8 hPa NE 1.6 km/h 3.2 km/h 81 % 0.0 mm
00:55 15.9 °C 12.7 °C 1013.8 hPa NE 1.6 km/h 3.2 km/h 81 % 0.0 mm
01:05 15.8 °C 12.6 °C 1012.8 hPa NE 1.6 km/h 3.2 km/h 81 % 0.0 mm
01:15 15.7 °C 12.4 °C 1012.8 hPa NE 1.6 km/h 3.2 km/h 81 % 0.0 mm
01:25 15.6 °C 12.6 °C 1012.8 hPa Calm   1.6 km/h 82 % 0.0 mm
01:35 15.5 °C 12.4 °C 1011.7 hPa Calm   1.6 km/h 82 % 0.0 mm
01:45 15.5 °C 12.3 °C 1011.7 hPa NE 4.8 km/h 6.4 km/h 81 % 0.0 mm
01:55 15.5 °C 12.3 °C 1012.8 hPa NE 3.2 km/h 9.7 km/h 81 % 0.0 mm
02:05 15.5 °C 12.3 °C 1012.8 hPa NNE 4.8 km/h 8.0 km/h 81 % 0.0 mm
02:15 15.6 °C 12.3 °C 1012.8 hPa NNE 4.8 km/h 8.0 km/h 81 % 0.0 mm
02:25 15.7 °C 12.4 °C 1012.8 hPa NNE 4.8 km/h 9.7 km/h 81 % 0.0 mm
02:35 15.9 °C 12.7 °C 1013.8 hPa NE 8.0 km/h 9.7 km/h 81 % 0.0 mm
02:45 16.0 °C 12.7 °C 1013.8 hPa NE 8.0 km/h 9.7 km/h 81 % 0.0 mm
02:55 16.1 °C 12.7 °C 1013.8 hPa NE 3.2 km/h 4.8 km/h 80 % 0.0 mm
03:05 16.0 °C 12.6 °C 1013.8 hPa NNE 4.8 km/h 9.7 km/h 80 % 0.0 mm
03:15 16.1 °C 12.7 °C 1013.8 hPa NE 3.2 km/h 4.8 km/h 80 % 0.0 mm
03:25 16.4 °C 12.9 °C 1013.8 hPa NE 4.8 km/h 6.4 km/h 80 % 0.0 mm
03:35 16.3 °C 12.8 °C 1012.8 hPa NNE 4.8 km/h 8.0 km/h 80 % 0.0 mm
03:45 16.6 °C 12.9 °C 1012.8 hPa NE 4.8 km/h 9.7 km/h 79 % 0.0 mm
03:55 16.9 °C 13.2 °C 1013.8 hPa NE 3.2 km/h 4.8 km/h 79 % 0.0 mm
04:05 17.1 °C 13.1 °C 1013.8 hPa ENE 3.2 km/h 4.8 km/h 77 % 0.0 mm
04:15 17.5 °C 13.2 °C 1013.8 hPa East 8.0 km/h 8.0 km/h 76 % 0.0 mm
04:25 18.0 °C 13.5 °C 1013.8 hPa East 4.8 km/h 6.4 km/h 75 % 0.0 mm
04:35 18.4 °C 13.7 °C 1013.8 hPa Calm   6.4 km/h 74 % 0.0 mm
04:45 19.1 °C 13.9 °C 1013.8 hPa East 4.8 km/h 8.0 km/h 72 % 0.0 mm
04:55 19.3 °C 13.9 °C 1013.8 hPa ENE 8.0 km/h 11.3 km/h 71 % 0.0 mm
05:05 19.6 °C 14.2 °C 1013.8 hPa ENE 3.2 km/h 4.8 km/h 71 % 0.0 mm
05:15 20.1 °C 14.2 °C 1013.8 hPa ENE 4.8 km/h 6.4 km/h 69 % 0.0 mm
05:25 20.7 °C 14.1 °C 1012.8 hPa East 4.8 km/h 9.7 km/h 66 % 0.0 mm
05:35 20.8 °C 13.7 °C 1012.8 hPa East 8.0 km/h 9.7 km/h 64 % 0.0 mm
05:45 21.0 °C 13.4 °C 1012.8 hPa East 8.0 km/h 14.5 km/h 62 % 0.0 mm
05:55 21.9 °C 13.8 °C 1013.8 hPa ESE 4.8 km/h 9.7 km/h 60 % 0.0 mm
06:05 21.1 °C 13.3 °C 1013.8 hPa ESE 4.8 km/h 9.7 km/h 61 % 0.0 mm
06:15 21.4 °C 13.6 °C 1013.8 hPa East 8.0 km/h 9.7 km/h 61 % 0.0 mm
06:25 20.9 °C 13.3 °C 1013.8 hPa ESE 4.8 km/h 9.7 km/h 62 % 0.0 mm
06:35 21.4 °C 13.3 °C 1013.8 hPa ESE 3.2 km/h 14.5 km/h 60 % 0.0 mm
06:45 21.6 °C 13.2 °C 1013.8 hPa ESE 4.8 km/h 9.7 km/h 59 % 0.0 mm
06:55 21.6 °C 13.2 °C 1013.8 hPa ESE 11.3 km/h 14.5 km/h 59 % 0.0 mm
07:05 22.0 °C 13.1 °C 1013.8 hPa ESE 9.7 km/h 9.7 km/h 57 % 0.0 mm
07:15 22.6 °C 13.4 °C 1013.8 hPa ESE 4.8 km/h 12.9 km/h 56 % 0.0 mm
07:25 22.4 °C 12.6 °C 1012.8 hPa ESE 12.9 km/h 16.1 km/h 54 % 0.0 mm
07:35 22.2 °C 12.4 °C 1012.8 hPa ESE 11.3 km/h 16.1 km/h 54 % 0.0 mm
07:45 22.2 °C 12.4 °C 1012.8 hPa ESE 8.0 km/h 12.9 km/h 54 % 0.0 mm
07:55 22.5 °C 12.4 °C 1013.8 hPa ESE 11.3 km/h 24.1 km/h 53 % 0.0 mm
08:05 23.2 °C 12.5 °C 1013.8 hPa SE 9.7 km/h 16.1 km/h 51 % 0.0 mm
08:15 23.6 °C 12.9 °C 1013.8 hPa SE 4.8 km/h 9.7 km/h 51 % 0.0 mm
08:25 23.6 °C 12.6 °C 1013.8 hPa ESE 9.7 km/h 12.9 km/h 50 % 0.0 mm
08:35 23.0 °C 11.7 °C 1014.8 hPa ESE 9.7 km/h 17.7 km/h 49 % 0.0 mm
13:38 23.1 °C 11.8 °C 1014.8 hPa NE 9.3 km/h 9.3 km/h 49 % 0.0 mm
13:43 23.5 °C 12.2 °C 1014.8 hPa ENE 14.8 km/h 14.8 km/h 49 % 0.0 mm
13:48 23.4 °C 12.1 °C 1014.8 hPa East 5.6 km/h 5.8 km/h 49 % 0.0 mm
13:53 23.3 °C 12.0 °C 1014.8 hPa ESE 20.4 km/h 20.4 km/h 49 % 0.0 mm
13:58 23.2 °C 11.9 °C 1014.8 hPa ESE 16.1 km/h 16.1 km/h 49 % 0.0 mm
14:03 23.3 °C 11.7 °C 1014.8 hPa ESE 18.5 km/h 18.5 km/h 48 % 0.0 mm
14:08 23.9 °C 12.2 °C 1014.8 hPa ESE 10.3 km/h 10.3 km/h 48 % 0.0 mm
14:13 24.2 °C 12.5 °C 1014.8 hPa ESE 11.1 km/h 11.1 km/h 48 % 0.0 mm
14:18 24.2 °C 12.2 °C 1014.8 hPa ENE 14.8 km/h 14.8 km/h 47 % 0.0 mm
14:23 24.5 °C 12.4 °C 1014.8 hPa ENE 10.3 km/h 10.3 km/h 47 % 0.0 mm
14:28 24.4 °C 12.3 °C 1014.8 hPa SSE 5.6 km/h 5.6 km/h 47 % 0.0 mm
14:33 24.1 °C 11.8 °C 1014.8 hPa NNE 9.3 km/h 9.3 km/h 46 % 0.0 mm
14:38 24.0 °C 11.3 °C 1013.8 hPa NNE 9.3 km/h 9.3 km/h 45 % 0.0 mm
14:48 24.6 °C 12.2 °C 1013.8 hPa ESE 14.5 km/h 14.5 km/h 46 % 0.0 mm
14:53 24.4 °C 12.0 °C 1013.8 hPa East 9.7 km/h 9.7 km/h 46 % 0.0 mm
14:58 24.4 °C 11.7 °C 1013.8 hPa ENE 13.0 km/h 13.0 km/h 45 % 0.0 mm
15:03 24.5 °C 11.4 °C 1013.8 hPa SE 14.8 km/h 14.8 km/h 44 % 0.0 mm
15:08 24.4 °C 11.0 °C 1012.8 hPa ESE 14.8 km/h 14.8 km/h 43 % 0.0 mm
15:18 24.8 °C 11.7 °C 1012.8 hPa ESE 14.8 km/h 14.8 km/h 44 % 0.0 mm
15:23 24.9 °C 11.8 °C 1012.8 hPa East 14.8 km/h 14.8 km/h 44 % 0.0 mm
15:28 24.6 °C 11.2 °C 1012.8 hPa South 11.1 km/h 11.1 km/h 43 % 0.0 mm
15:33 24.7 °C 10.9 °C 1012.8 hPa ESE 16.7 km/h 16.7 km/h 42 % 0.0 mm
15:38 24.7 °C 10.9 °C 1011.7 hPa SE 16.7 km/h 16.7 km/h 42 % 0.0 mm
15:43 24.7 °C 10.9 °C 1011.7 hPa ESE 18.5 km/h 18.5 km/h 42 % 0.0 mm
15:48 24.8 °C 11.0 °C 1011.7 hPa NNW 13.0 km/h 13.0 km/h 42 % 0.0 mm
15:53 24.9 °C 11.4 °C 1011.7 hPa South 14.8 km/h 14.8 km/h 43 % 0.0 mm
15:58 25.1 °C 10.9 °C 1011.7 hPa ESE 13.0 km/h 13.0 km/h 41 % 0.0 mm
16:03 24.6 °C 10.8 °C 1011.7 hPa ENE 18.5 km/h 18.5 km/h 42 % 0.0 mm
16:08 24.9 °C 11.1 °C 1011.7 hPa ENE 14.8 km/h 14.8 km/h 42 % 0.0 mm
16:13 25.0 °C 10.8 °C 1011.7 hPa East 14.0 km/h 14.0 km/h 41 % 0.0 mm
16:18 24.8 °C 10.7 °C 1011.7 hPa East 20.4 km/h 20.4 km/h 41 % 0.0 mm
16:23 24.7 °C 10.9 °C 1011.7 hPa SE 16.7 km/h 16.7 km/h 42 % 0.0 mm
16:28 24.9 °C 11.1 °C 1011.7 hPa ESE 25.9 km/h 25.9 km/h 42 % 0.0 mm
16:33 24.7 °C 10.9 °C 1011.7 hPa ENE 16.7 km/h 16.7 km/h 42 % 0.0 mm
16:38 24.8 °C 10.7 °C 1011.7 hPa ESE 19.8 km/h 19.8 km/h 41 % 0.0 mm
16:43 24.9 °C 10.7 °C 1011.7 hPa ESE 18.5 km/h 18.5 km/h 41 % 0.0 mm
16:48 25.1 °C 10.6 °C 1011.7 hPa ENE 9.3 km/h 9.3 km/h 40 % 0.0 mm
16:53 25.1 °C 10.2 °C 1011.7 hPa ESE 13.0 km/h 13.0 km/h 39 % 0.0 mm
16:58 25.0 °C 10.1 °C 1011.7 hPa SE 13.0 km/h 13.0 km/h 39 % 0.0 mm
17:03 25.0 °C 10.4 °C 1011.7 hPa ESE 16.7 km/h 16.7 km/h 40 % 0.0 mm
17:08 25.1 °C 10.6 °C 1011.7 hPa SSE 13.0 km/h 13.0 km/h 40 % 0.0 mm
17:13 25.0 °C 10.4 °C 1011.7 hPa ESE 9.3 km/h 11.1 km/h 40 % 0.0 mm
17:18 25.4 °C 11.2 °C 1011.7 hPa East 5.6 km/h 5.6 km/h 41 % 0.0 mm
17:23 25.2 °C 11.0 °C 1011.7 hPa ESE 14.8 km/h 14.8 km/h 41 % 0.0 mm
17:28 25.0 °C 10.8 °C 1011.7 hPa NE 9.3 km/h 9.5 km/h 41 % 0.0 mm
17:33 24.8 °C 11.0 °C 1011.7 hPa ENE 11.1 km/h 12.2 km/h 42 % 0.0 mm
17:38 24.6 °C 10.8 °C 1011.7 hPa SE 14.8 km/h 14.8 km/h 42 % 0.0 mm
17:43 24.7 °C 10.9 °C 1011.7 hPa East 11.1 km/h 11.1 km/h 42 % 0.0 mm
17:48 24.6 °C 10.8 °C 1011.7 hPa East 9.3 km/h 9.3 km/h 42 % 0.0 mm
17:53 24.4 °C 10.7 °C 1011.7 hPa East 16.7 km/h 16.7 km/h 42 % 0.0 mm
17:58 24.1 °C 10.4 °C 1011.7 hPa East 22.2 km/h 22.2 km/h 42 % 0.0 mm
18:03 24.0 °C 10.3 °C 1011.7 hPa South 9.3 km/h 9.3 km/h 42 % 0.0 mm
18:08 23.9 °C 10.2 °C 1011.7 hPa East 11.4 km/h 11.4 km/h 42 % 0.0 mm
18:13 23.8 °C 10.1 °C 1011.7 hPa ENE 9.3 km/h 9.3 km/h 42 % 0.0 mm
18:18 23.9 °C 10.6 °C 1011.7 hPa SSW 8.7 km/h 8.7 km/h 43 % 0.0 mm
18:23 24.0 °C 10.7 °C 1011.7 hPa ESE 9.3 km/h 9.3 km/h 43 % 0.0 mm
18:33 23.5 °C 10.2 °C 1011.7 hPa East 9.3 km/h 9.3 km/h 43 % 0.0 mm
18:38 23.5 °C 10.2 °C 1011.7 hPa NNW 7.4 km/h 7.6 km/h 43 % 0.0 mm
18:48 23.1 °C 10.2 °C 1011.7 hPa ESE 11.1 km/h 11.1 km/h 44 % 0.0 mm
18:53 23.0 °C 10.4 °C 1011.7 hPa East 14.8 km/h 14.8 km/h 45 % 0.0 mm
18:58 22.8 °C 10.6 °C 1011.7 hPa ESE 11.1 km/h 11.1 km/h 46 % 0.0 mm
19:03 22.8 °C 10.6 °C 1011.7 hPa East 13.0 km/h 13.0 km/h 46 % 0.0 mm
19:08 22.6 °C 10.4 °C 1011.7 hPa SSE 14.8 km/h 14.8 km/h 46 % 0.0 mm
19:13 22.6 °C 10.7 °C 1011.7 hPa ESE 9.3 km/h 9.3 km/h 47 % 0.0 mm
19:18 22.3 °C 10.4 °C 1011.7 hPa ESE 10.0 km/h 10.0 km/h 47 % 0.0 mm
19:20 16.4 °C 10.5 °C 1014.8 hPa Calm     68 % 0.0 mm
19:23 22.2 °C 10.3 °C 1011.7 hPa ESE 10.3 km/h 10.3 km/h 47 % 0.0 mm
19:28 22.2 °C 10.7 °C 1011.7 hPa ESE 14.8 km/h 14.8 km/h 48 % 0.0 mm
19:30 16.3 °C 10.4 °C 1014.8 hPa Calm     68 % 0.0 mm
19:33 22.1 °C 10.6 °C 1012.8 hPa ESE 3.9 km/h 5.3 km/h 48 % 0.0 mm
19:38 21.9 °C 10.4 °C 1012.8 hPa East 13.0 km/h 13.0 km/h 48 % 0.0 mm
19:40 16.2 °C 10.3 °C 1015.8 hPa Calm     68 % 0.0 mm
19:43 21.7 °C 10.5 °C 1012.8 hPa ESE 11.4 km/h 11.4 km/h 49 % 0.0 mm
19:48 21.6 °C 10.4 °C 1013.8 hPa ESE 14.8 km/h 14.8 km/h 49 % 0.0 mm
19:50 16.0 °C 10.1 °C 1014.8 hPa Calm   1.6 km/h 68 % 0.0 mm
19:53 21.3 °C 10.2 °C 1013.8 hPa East 11.9 km/h 11.9 km/h 49 % 0.0 mm
20:04 20.8 °C 10.3 °C 1013.8 hPa ESE 13.0 km/h 13.0 km/h 51 % 0.0 mm
20:09 20.6 °C 10.1 °C 1013.8 hPa ENE 13.0 km/h 13.0 km/h 51 % 0.0 mm
20:10 15.8 °C 10.1 °C 1015.8 hPa Calm   1.6 km/h 69 % 0.0 mm
20:14 20.5 °C 10.0 °C 1013.8 hPa SE 7.4 km/h 7.4 km/h 51 % 0.0 mm
20:19 20.4 °C 9.9 °C 1012.8 hPa ENE 9.3 km/h 9.3 km/h 51 % 0.0 mm
20:20 15.7 °C 10.2 °C 1014.8 hPa Calm     70 % 0.0 mm
20:24 20.2 °C 10.0 °C 1012.8 hPa ESE 11.1 km/h 11.1 km/h 52 % 0.0 mm
20:29 20.1 °C 9.9 °C 1012.8 hPa ESE 10.0 km/h 10.0 km/h 52 % 0.0 mm
20:30 15.5 °C 10.1 °C 1014.8 hPa Calm     70 % 0.0 mm
20:34 19.9 °C 9.7 °C 1013.8 hPa ESE 9.3 km/h 9.3 km/h 52 % 0.0 mm
20:39 19.7 °C 9.8 °C 1013.8 hPa East 9.3 km/h 9.3 km/h 53 % 0.0 mm
20:40 15.5 °C 10.3 °C 1014.8 hPa Calm     71 % 0.0 mm
20:44 19.6 °C 9.8 °C 1013.8 hPa East 9.3 km/h 9.3 km/h 53 % 0.0 mm
20:49 19.5 °C 9.7 °C 1013.8 hPa ESE 9.3 km/h 9.3 km/h 53 % 0.0 mm
20:50 15.5 °C 10.3 °C 1014.8 hPa NW 1.6 km/h 3.2 km/h 71 % 0.0 mm
20:54 19.3 °C 9.8 °C 1013.8 hPa ESE 5.6 km/h 5.6 km/h 54 % 0.0 mm
20:59 19.2 °C 9.7 °C 1013.8 hPa SE 7.4 km/h 7.4 km/h 54 % 0.0 mm
21:00 15.4 °C 10.2 °C 1014.8 hPa ENE 1.6 km/h 3.2 km/h 71 % 0.0 mm
21:04 19.1 °C 9.6 °C 1013.8 hPa East 7.4 km/h 7.4 km/h 54 % 0.0 mm
21:09 19.0 °C 9.5 °C 1013.8 hPa ESE 8.7 km/h 8.7 km/h 54 % 0.0 mm
21:10 15.3 °C 10.3 °C 1014.8 hPa ENE 1.6 km/h 3.2 km/h 72 % 0.0 mm
21:14 18.8 °C 9.8 °C 1013.8 hPa ESE 5.6 km/h 5.6 km/h 56 % 0.0 mm
21:19 18.7 °C 9.7 °C 1013.8 hPa ESE 9.3 km/h 9.3 km/h 56 % 0.0 mm
21:20 15.2 °C 10.2 °C 1014.8 hPa NE 1.6 km/h 1.6 km/h 72 % 0.0 mm
21:24 18.6 °C 9.9 °C 1013.8 hPa ESE 5.6 km/h 5.6 km/h 57 % 0.0 mm
21:29 18.5 °C 9.8 °C 1013.8 hPa East 7.4 km/h 7.4 km/h 57 % 0.0 mm
21:30 15.1 °C 10.1 °C 1014.8 hPa Calm     72 % 0.0 mm
21:34 18.3 °C 9.9 °C 1013.8 hPa SE 9.3 km/h 9.3 km/h 58 % 0.0 mm
21:39 18.2 °C 9.8 °C 1013.8 hPa ENE 9.5 km/h 9.5 km/h 58 % 0.0 mm
21:40 14.9 °C 9.9 °C 1014.8 hPa Calm     72 % 0.0 mm
21:44 18.1 °C 9.9 °C 1013.8 hPa WSW 7.4 km/h 7.4 km/h 59 % 0.0 mm
21:49 18.0 °C 9.9 °C 1014.8 hPa ENE 13.0 km/h 13.0 km/h 59 % 0.0 mm
21:50 14.7 °C 9.9 °C 1014.8 hPa Calm     73 % 0.0 mm
21:54 18.0 °C 10.1 °C 1014.8 hPa ENE 3.7 km/h 3.7 km/h 60 % 0.0 mm
21:59 17.9 °C 10.0 °C 1014.8 hPa East 5.6 km/h 5.6 km/h 60 % 0.0 mm
22:00 14.6 °C 9.8 °C 1014.8 hPa Calm     73 % 0.0 mm
22:04 17.8 °C 10.2 °C 1014.8 hPa ENE 3.7 km/h 3.7 km/h 61 % 0.0 mm
22:09 17.8 °C 10.2 °C 1014.8 hPa ENE 7.4 km/h 7.4 km/h 61 % 0.0 mm
22:10 14.5 °C 9.7 °C 1014.8 hPa Calm     73 % 0.0 mm
22:14 17.7 °C 10.3 °C 1014.8 hPa East 7.4 km/h 7.4 km/h 62 % 0.0 mm
22:19 17.6 °C 10.2 °C 1014.8 hPa ENE 7.4 km/h 7.4 km/h 62 % 0.0 mm
22:20 14.6 °C 10.0 °C 1013.8 hPa Calm   1.6 km/h 74 % 0.0 mm
22:24 17.6 °C 10.2 °C 1014.8 hPa ESE 8.7 km/h 8.7 km/h 62 % 0.0 mm
22:29 17.6 °C 10.2 °C 1014.8 hPa ENE 4.2 km/h 4.2 km/h 62 % 0.0 mm
22:34 17.5 °C 10.4 °C 1014.8 hPa ESE 5.6 km/h   63 % 0.0 mm
22:40 14.5 °C 9.9 °C 1013.8 hPa Calm   3.2 km/h 74 % 0.0 mm
22:44 17.4 °C 10.3 °C 1014.8 hPa NE 5.6 km/h 5.6 km/h 63 % 0.0 mm
22:49 17.4 °C 10.3 °C 1014.8 hPa NE 3.5 km/h 3.5 km/h 63 % 0.0 mm
22:50 14.3 °C 9.7 °C 1013.8 hPa Calm     74 % 0.0 mm
22:54 17.3 °C 10.4 °C 1014.8 hPa East 1.9 km/h 2.3 km/h 64 % 0.0 mm
22:59 17.2 °C 10.3 °C 1014.8 hPa ENE 1.9 km/h 1.9 km/h 64 % 0.0 mm
23:00 14.3 °C 9.9 °C 1013.8 hPa NE 1.6 km/h 1.6 km/h 75 % 0.0 mm
23:04 17.2 °C 10.3 °C 1014.8 hPa ENE 1.9 km/h 1.9 km/h 64 % 0.0 mm
23:09 17.1 °C 10.4 °C 1014.8 hPa NNE 1.9 km/h 1.9 km/h 65 % 0.0 mm
23:10 14.2 °C 9.8 °C 1014.8 hPa NE 1.6 km/h 1.6 km/h 75 % 0.0 mm
23:14 17.1 °C 10.4 °C 1014.8 hPa NNE 1.4 km/h   65 % 0.0 mm
23:19 17.0 °C 10.4 °C 1014.8 hPa Calm     65 % 0.0 mm
23:20 14.2 °C 9.8 °C 1013.8 hPa ENE 1.6 km/h 3.2 km/h 75 % 0.0 mm
23:24 16.9 °C 10.5 °C 1014.8 hPa Calm     66 % 0.0 mm
23:29 16.8 °C 10.6 °C 1014.8 hPa Calm     67 % 0.0 mm
23:30 14.0 °C 9.4 °C 1013.8 hPa ENE 1.6 km/h 3.2 km/h 74 % 0.0 mm
23:34 16.8 °C 10.6 °C 1015.8 hPa Calm     67 % 0.0 mm
23:39 16.7 °C 10.6 °C 1015.8 hPa Calm     67 % 0.0 mm
23:40 13.8 °C 9.7 °C 1013.8 hPa SSW 1.6 km/h 1.6 km/h 76 % 0.0 mm
23:44 16.7 °C 10.6 °C 1015.8 hPa Calm     67 % 0.0 mm
23:49 16.6 °C 10.4 °C 1014.8 hPa NW 1.9 km/h   67 % 0.0 mm
23:50 13.7 °C 9.3 °C 1013.8 hPa SSW 1.6 km/h 1.6 km/h 75 % 0.0 mm
23:54 16.6 °C 10.2 °C 1014.8 hPa Calm     66 % 0.0 mm
23:59 16.6 °C 10.4 °C 1014.8 hPa NW 1.9 km/h   67 % 0.0 mm
Meteo Sesrovires
Elogis d' Weather Underground - 3.5 mb

Guio original per  Jim McMurry - jmcmurry@mwt.net Adaptat per a la plantilla per  Wim van der Kuil - Leuven-Template.eu

Trobareu la nostra informacio del temps tambe a:

Weather Underground

AWEKAS